Time;durP1;ratioP1;P1;durP2;ratioP2;P2;SDS_P1;SDS_P2;PMS_P1;PMS_P2;Temp;Humidity;BMP_temperature;BMP_pressure;BME280_temperature;BME280_humidity;BME280_pressure;Samples;Min_cycle;Max_cycle;Signal;HPM_P1;HPM_P2
2021/12/12 00:00:47;;;;;;;22.85;11.50;;;-0.60;99.90;;;;;;4187181;28;20483;-79
2021/12/12 00:02:56;;;;;;;25.13;11.40;;;-0.60;99.90;;;;;;4187083;28;20209;-79
2021/12/12 00:04:59;;;;;;;22.73;11.27;;;-0.60;99.90;;;;;;4187907;28;20206;-79
2021/12/12 00:07:08;;;;;;;32.13;12.33;;;-0.60;99.90;;;;;;4187252;28;20866;-79
2021/12/12 00:09:16;;;;;;;28.10;11.03;;;-0.60;99.90;;;;;;4187120;28;20519;-78
2021/12/12 00:11:21;;;;;;;28.73;12.13;;;-0.60;99.90;;;;;;4185836;28;20487;-79
2021/12/12 00:13:28;;;;;;;26.83;11.88;;;-0.60;99.90;;;;;;4189264;28;20503;-79
2021/12/12 00:15:30;;;;;;;30.05;13.00;;;-0.60;99.90;;;;;;4191421;28;20255;-79
2021/12/12 00:17:32;;;;;;;23.57;11.23;;;-0.60;99.90;;;;;;4191016;28;20217;-79
2021/12/12 00:19:35;;;;;;;26.67;12.02;;;-0.60;99.90;;;;;;4190171;28;20460;-79
2021/12/12 00:21:40;;;;;;;29.23;13.37;;;-0.60;99.90;;;;;;4190183;28;20320;-79
2021/12/12 00:23:42;;;;;;;30.57;12.60;;;-0.60;99.90;;;;;;4189753;28;20616;-79
2021/12/12 00:25:48;;;;;;;26.03;11.97;;;-0.60;99.90;;;;;;4190762;28;20467;-79
2021/12/12 00:27:49;;;;;;;25.90;11.55;;;-0.60;99.90;;;;;;4188823;28;20522;-80
2021/12/12 00:29:52;;;;;;;26.40;11.53;;;-0.60;99.90;;;;;;4190695;28;20728;-79
2021/12/12 00:31:58;;;;;;;26.38;11.68;;;-0.60;99.90;;;;;;4189642;28;20858;-79
2021/12/12 00:34:01;;;;;;;27.80;11.70;;;-0.60;99.90;;;;;;4190223;28;20627;-79
2021/12/12 00:36:03;;;;;;;25.05;11.57;;;-0.60;99.90;;;;;;4189179;28;20956;-79
2021/12/12 00:38:12;;;;;;;27.63;12.50;;;-0.60;99.90;;;;;;4190302;28;20271;-78
2021/12/12 00:40:21;;;;;;;30.47;12.87;;;-0.60;99.90;;;;;;4192974;28;20805;-79
2021/12/12 00:42:26;;;;;;;27.35;11.73;;;-0.60;99.90;;;;;;4191980;28;20472;-79
2021/12/12 00:44:29;;;;;;;29.73;13.00;;;-0.60;99.90;;;;;;4190224;28;20271;-79
2021/12/12 00:46:31;;;;;;;28.75;13.35;;;-0.60;99.90;;;;;;4190433;28;20487;-79
2021/12/12 00:48:34;;;;;;;32.30;14.27;;;-0.60;99.90;;;;;;4192174;28;20210;-79
2021/12/12 00:50:39;;;;;;;30.80;13.15;;;-0.60;99.90;;;;;;4189702;28;20573;-77
2021/12/12 00:52:43;;;;;;;29.00;12.68;;;-0.60;99.90;;;;;;4196315;28;20617;-79
2021/12/12 00:54:46;;;;;;;33.67;13.47;;;-0.70;99.90;;;;;;4193825;28;20721;-79
2021/12/12 00:56:49;;;;;;;33.50;14.25;;;-0.60;99.90;;;;;;4192070;28;20948;-79
2021/12/12 00:58:52;;;;;;;28.08;13.00;;;-0.60;99.90;;;;;;4194141;28;20201;-79
2021/12/12 01:00:57;;;;;;;31.92;13.07;;;-0.60;99.90;;;;;;4191753;28;20237;-79
2021/12/12 01:03:00;;;;;;;32.07;14.10;;;-0.60;99.90;;;;;;4192550;28;20217;-79
2021/12/12 01:05:06;;;;;;;33.60;14.50;;;-0.60;99.90;;;;;;4197650;28;20452;-79
2021/12/12 01:07:11;;;;;;;35.58;13.73;;;-0.60;99.90;;;;;;4196903;28;20240;-79
2021/12/12 01:09:19;;;;;;;37.35;15.18;;;-0.60;99.90;;;;;;4196171;28;20583;-77
2021/12/12 01:11:26;;;;;;;35.25;14.25;;;-0.60;99.90;;;;;;4197074;28;20275;-77
2021/12/12 01:13:28;;;;;;;34.40;14.83;;;-0.60;99.90;;;;;;4197964;28;20233;-77
2021/12/12 01:15:34;;;;;;;33.65;14.07;;;-0.60;99.90;;;;;;4197614;28;20467;-77
2021/12/12 01:17:40;;;;;;;31.48;14.18;;;-0.60;99.90;;;;;;4197512;28;20600;-77
2021/12/12 01:19:49;;;;;;;32.55;13.88;;;-0.60;99.90;;;;;;4191180;28;20210;-77
2021/12/12 01:21:54;;;;;;;35.70;14.90;;;-0.60;99.90;;;;;;4196978;28;20339;-78
2021/12/12 01:23:59;;;;;;;38.50;15.20;;;-0.60;99.90;;;;;;4196627;28;20218;-78
2021/12/12 01:26:01;;;;;;;36.17;15.25;;;-0.60;99.90;;;;;;4195580;28;20476;-77
2021/12/12 01:28:04;;;;;;;33.13;13.77;;;-0.60;99.90;;;;;;4194724;28;20214;-77
2021/12/12 01:30:10;;;;;;;31.73;15.05;;;-0.50;99.90;;;;;;4196111;28;20976;-77
2021/12/12 01:32:22;;;;;;;33.30;14.18;;;-0.60;99.90;;;;;;4197137;28;20237;-79
2021/12/12 01:34:28;;;;;;;36.03;15.07;;;-0.50;99.90;;;;;;4197421;28;20271;-78
2021/12/12 01:36:44;;;;;;;36.00;15.00;;;-0.60;99.90;;;;;;4196512;28;20515;-78
2021/12/12 01:38:52;;;;;;;33.70;15.13;;;-0.50;99.90;;;;;;4197561;28;20459;-78
2021/12/12 01:40:57;;;;;;;34.13;15.10;;;-0.60;99.90;;;;;;4195035;28;20504;-78
2021/12/12 01:43:03;;;;;;;32.05;14.23;;;-0.60;99.90;;;;;;4197035;28;20460;-78
2021/12/12 01:45:10;;;;;;;32.83;14.05;;;-0.60;99.90;;;;;;4188025;28;20202;-77
2021/12/12 01:47:17;;;;;;;36.40;14.63;;;-0.60;99.90;;;;;;4196354;28;20264;-77
2021/12/12 01:49:24;;;;;;;31.50;13.13;;;-0.60;99.90;;;;;;4197118;28;20458;-78
2021/12/12 01:51:28;;;;;;;39.57;16.13;;;-0.60;99.90;;;;;;4193881;28;20491;-78
2021/12/12 01:53:33;;;;;;;35.67;15.60;;;-0.60;99.90;;;;;;4196649;28;20468;-79
2021/12/12 01:55:40;;;;;;;37.30;15.93;;;-0.60;99.90;;;;;;4196012;28;20468;-78
2021/12/12 01:57:42;;;;;;;38.63;15.53;;;-0.60;99.90;;;;;;4195927;28;20835;-76
2021/12/12 01:59:46;;;;;;;42.30;16.60;;;-0.60;99.90;;;;;;4191662;28;20477;-79
2021/12/12 02:01:51;;;;;;;37.27;15.90;;;-0.60;99.90;;;;;;4183504;28;20713;-79
2021/12/12 02:03:59;;;;;;;39.67;15.00;;;-0.60;99.90;;;;;;4197158;28;20460;-79
2021/12/12 02:06:02;;;;;;;36.87;15.60;;;-0.60;99.90;;;;;;4198030;28;20505;-80
2021/12/12 02:08:08;;;;;;;33.73;14.37;;;-0.60;99.90;;;;;;4199222;28;20834;-79
2021/12/12 02:10:13;;;;;;;32.85;14.43;;;-0.60;99.90;;;;;;4189863;28;20491;-79
2021/12/12 02:12:15;;;;;;;36.17;15.27;;;-0.60;99.90;;;;;;4195266;28;20206;-80
2021/12/12 02:14:20;;;;;;;34.05;14.02;;;-0.60;99.90;;;;;;4196326;28;20906;-79
2021/12/12 02:16:24;;;;;;;38.53;15.17;;;-0.70;99.90;;;;;;4196571;28;20217;-79
2021/12/12 02:18:33;;;;;;;35.75;14.82;;;-0.70;99.90;;;;;;4196429;28;20558;-79
2021/12/12 02:20:43;;;;;;;33.63;14.30;;;-0.70;99.90;;;;;;4192109;28;20240;-79
2021/12/12 02:23:01;;;;;;;34.22;14.52;;;-0.70;99.90;;;;;;4193132;28;20483;-79
2021/12/12 02:36:47;;;;;;;37.10;14.53;;;-0.60;99.90;;;;;;4194878;28;20447;-79
2021/12/12 02:38:53;;;;;;;38.53;15.27;;;-0.60;99.90;;;;;;4194971;28;20468;-78
2021/12/12 02:40:58;;;;;;;36.33;15.27;;;-0.60;99.90;;;;;;4192988;28;20488;-81
2021/12/12 02:43:01;;;;;;;37.57;14.67;;;-0.60;99.90;;;;;;4194999;28;20862;-79
2021/12/12 02:45:04;;;;;;;36.00;15.43;;;-0.60;99.90;;;;;;4195949;28;20546;-78
2021/12/12 02:47:13;;;;;;;40.67;15.23;;;-0.50;99.90;;;;;;4196122;28;20452;-78
2021/12/12 02:49:35;;;;;;;37.50;15.30;;;-0.50;99.90;;;;;;4181345;28;20861;-79
2021/12/12 02:51:39;;;;;;;36.90;15.07;;;-0.40;99.90;;;;;;4188201;28;20480;-77
2021/12/12 02:53:44;;;;;;;37.93;15.77;;;-0.40;99.90;;;;;;4194843;28;20465;-77
2021/12/12 02:55:50;;;;;;;33.80;14.40;;;-0.40;99.90;;;;;;4195006;28;20449;-77
2021/12/12 02:57:53;;;;;;;39.77;15.10;;;-0.30;99.90;;;;;;4182180;28;20692;-76
2021/12/12 02:59:55;;;;;;;35.10;14.80;;;-0.30;99.90;;;;;;4183988;28;20480;-80
2021/12/12 03:01:59;;;;;;;29.07;13.17;;;-0.30;99.90;;;;;;4195366;28;20501;-79
2021/12/12 03:04:01;;;;;;;34.50;14.20;;;-0.30;99.90;;;;;;4195375;28;20460;-79
2021/12/12 03:06:04;;;;;;;36.40;14.23;;;-0.20;99.90;;;;;;4184179;28;20473;-79
2021/12/12 03:08:05;;;;;;;32.80;13.57;;;-0.20;99.90;;;;;;4180622;28;20524;-78
2021/12/12 03:10:13;;;;;;;30.70;13.00;;;-0.20;99.90;;;;;;4180650;28;20477;-78
2021/12/12 03:12:19;;;;;;;31.57;13.80;;;-0.20;99.90;;;;;;4182701;28;20472;-79
2021/12/12 03:14:20;;;;;;;35.27;14.77;;;-0.20;99.90;;;;;;4193585;28;20539;-79
2021/12/12 03:16:24;;;;;;;34.93;14.20;;;-0.20;99.90;;;;;;4195503;28;20456;-79
2021/12/12 03:18:32;;;;;;;38.20;15.13;;;-0.10;99.90;;;;;;4194595;28;20468;-79
2021/12/12 03:20:38;;;;;;;30.67;13.50;;;-0.10;99.90;;;;;;4193025;28;20517;-78
2021/12/12 03:22:40;;;;;;;36.50;14.93;;;-0.10;99.90;;;;;;4195021;28;20530;-75
2021/12/12 03:24:42;;;;;;;29.57;13.50;;;-0.10;99.90;;;;;;4194553;28;20448;-78
2021/12/12 03:26:47;;;;;;;34.03;13.97;;;-0.10;99.90;;;;;;4195922;28;20463;-78
2021/12/12 03:28:55;;;;;;;34.23;14.67;;;-0.10;99.90;;;;;;4181514;28;20465;-79
2021/12/12 03:30:59;;;;;;;32.43;14.43;;;-0.10;99.90;;;;;;4194875;28;20490;-79
2021/12/12 03:33:01;;;;;;;32.27;14.00;;;-0.10;99.90;;;;;;4196248;28;20478;-79
2021/12/12 03:35:06;;;;;;;33.20;14.07;;;-0.10;99.90;;;;;;4195483;28;20496;-79
2021/12/12 03:37:10;;;;;;;29.97;13.63;;;-0.10;99.90;;;;;;4183520;28;20473;-79
2021/12/12 03:39:18;;;;;;;29.50;12.80;;;-0.10;99.90;;;;;;4179470;28;20502;-78
2021/12/12 03:41:23;;;;;;;31.77;12.90;;;0.00;99.90;;;;;;4190964;28;20479;-78
2021/12/12 03:43:25;;;;;;;29.00;12.37;;;-0.10;99.90;;;;;;4195741;28;20460;-79
2021/12/12 03:45:30;;;;;;;32.37;13.80;;;-0.10;99.90;;;;;;4190520;28;20477;-78
2021/12/12 03:47:35;;;;;;;31.33;13.77;;;-0.10;99.90;;;;;;4205127;28;20453;-78
2021/12/12 03:49:38;;;;;;;29.03;12.40;;;-0.10;99.90;;;;;;4198868;28;20905;-78
2021/12/12 03:51:42;;;;;;;36.40;14.67;;;-0.10;99.90;;;;;;4195213;28;20550;-80
2021/12/12 03:53:44;;;;;;;32.37;13.70;;;-0.10;99.90;;;;;;4192522;28;21046;-78
2021/12/12 03:55:48;;;;;;;33.03;13.17;;;0.00;99.90;;;;;;4199385;28;20510;-79
2021/12/12 03:57:50;;;;;;;34.53;14.50;;;0.00;99.90;;;;;;4198795;28;20557;-78
2021/12/12 03:59:52;;;;;;;37.77;14.13;;;0.00;99.90;;;;;;4187939;28;20969;-78
2021/12/12 04:01:55;;;;;;;34.97;14.70;;;0.00;99.90;;;;;;4197663;28;20521;-78
2021/12/12 04:04:03;;;;;;;35.90;14.57;;;0.00;99.90;;;;;;4198877;28;20452;-80
2021/12/12 04:06:10;;;;;;;34.03;14.23;;;0.00;99.90;;;;;;4198894;28;20451;-78
2021/12/12 04:08:12;;;;;;;37.00;14.57;;;0.00;99.90;;;;;;4199428;28;20679;-79
2021/12/12 04:10:19;;;;;;;32.87;13.60;;;0.00;99.90;;;;;;4192661;28;21008;-78
2021/12/12 04:12:22;;;;;;;30.27;13.80;;;0.00;99.90;;;;;;4197469;28;20830;-78
2021/12/12 04:14:25;;;;;;;34.97;15.53;;;0.00;99.90;;;;;;4198851;28;20491;-78
2021/12/12 04:16:29;;;;;;;35.43;14.20;;;0.00;99.90;;;;;;4198293;28;20452;-79
2021/12/12 04:18:32;;;;;;;31.97;13.73;;;0.10;99.90;;;;;;4192326;28;20531;-80
2021/12/12 04:20:37;;;;;;;31.93;14.20;;;0.10;99.90;;;;;;4180086;28;20469;-76
2021/12/12 04:22:39;;;;;;;36.47;14.10;;;0.00;99.90;;;;;;4197084;28;20517;-79
2021/12/12 04:24:43;;;;;;;34.23;15.17;;;0.10;99.90;;;;;;4198149;28;20540;-79
2021/12/12 04:26:45;;;;;;;34.93;14.40;;;0.00;99.90;;;;;;4197124;28;20750;-79
2021/12/12 04:28:58;;;;;;;31.13;13.57;;;0.10;99.90;;;;;;4188512;28;20980;-79
2021/12/12 04:31:00;;;;;;;36.20;14.47;;;0.00;99.90;;;;;;4195819;28;20492;-78
2021/12/12 04:33:02;;;;;;;41.10;15.93;;;0.10;99.90;;;;;;4197880;28;20456;-78
2021/12/12 04:35:10;;;;;;;36.50;15.43;;;0.00;99.90;;;;;;4197375;28;20491;-79
2021/12/12 04:37:12;;;;;;;37.37;15.37;;;0.00;99.90;;;;;;4189284;28;20468;-79
2021/12/12 04:39:16;;;;;;;37.80;15.57;;;0.00;99.90;;;;;;4181965;28;20808;-79
2021/12/12 04:41:22;;;;;;;35.83;14.97;;;0.00;99.90;;;;;;4190522;28;21075;-79
2021/12/12 04:43:24;;;;;;;39.20;15.47;;;0.00;99.90;;;;;;4194422;28;20976;-78
2021/12/12 04:45:40;;;;;;;37.53;16.53;;;0.00;99.90;;;;;;4190589;28;20965;-79
2021/12/12 04:50:20;;;;;;;36.87;15.20;;;0.00;99.90;;;;;;4181117;28;20948;-79
2021/12/12 04:52:27;;;;;;;33.63;14.37;;;0.00;99.90;;;;;;4185447;28;20447;-80
2021/12/12 04:54:37;;;;;;;41.87;15.27;;;0.00;99.90;;;;;;4181570;28;20461;-79
2021/12/12 04:56:49;;;;;;;33.43;14.30;;;0.00;99.90;;;;;;4193848;28;20472;-79
2021/12/12 04:58:58;;;;;;;36.67;14.13;;;0.00;99.90;;;;;;4196809;28;20457;-79
2021/12/12 05:01:05;;;;;;;32.20;14.57;;;0.00;99.90;;;;;;4196105;28;20530;-79
2021/12/12 05:03:14;;;;;;;33.77;13.80;;;0.00;99.90;;;;;;4196709;28;20449;-78
2021/12/12 05:05:23;;;;;;;33.50;13.67;;;0.00;99.90;;;;;;4197304;28;20501;-79
2021/12/12 05:07:31;;;;;;;31.87;13.80;;;0.00;99.90;;;;;;4198119;28;20456;-78
2021/12/12 05:09:35;;;;;;;37.80;14.70;;;0.00;99.90;;;;;;4188484;28;20534;-79
2021/12/12 05:11:51;;;;;;;34.07;13.70;;;0.00;99.90;;;;;;4185179;28;20491;-78
2021/12/12 05:13:55;;;;;;;33.17;13.57;;;0.00;99.90;;;;;;4193841;28;20444;-79
2021/12/12 05:16:00;;;;;;;31.47;13.47;;;0.00;99.90;;;;;;4197126;28;20488;-80
2021/12/12 05:18:05;;;;;;;31.60;13.20;;;0.00;99.90;;;;;;4191537;28;20485;-78
2021/12/12 05:20:11;;;;;;;34.50;13.73;;;0.00;99.90;;;;;;4180192;28;20477;-78
2021/12/12 05:22:18;;;;;;;31.20;14.00;;;0.00;99.90;;;;;;4191233;28;20483;-79
2021/12/12 05:24:23;;;;;;;31.17;13.97;;;0.00;99.90;;;;;;4194073;28;21094;-78
2021/12/12 05:26:30;;;;;;;34.10;13.00;;;0.00;99.90;;;;;;4197598;28;20461;-81
2021/12/12 05:28:33;;;;;;;37.73;14.67;;;0.10;99.90;;;;;;4196949;28;20449;-78
2021/12/12 05:30:37;;;;;;;35.30;14.63;;;0.10;99.90;;;;;;4196966;28;20495;-78
2021/12/12 05:32:40;;;;;;;31.63;13.03;;;0.10;99.90;;;;;;4186534;28;20469;-79
2021/12/12 05:34:48;;;;;;;30.07;13.43;;;0.10;99.90;;;;;;4193206;28;20911;-78
2021/12/12 05:36:51;;;;;;;35.20;14.57;;;0.10;99.90;;;;;;4196635;28;20976;-78
2021/12/12 05:38:57;;;;;;;29.67;13.37;;;0.10;99.90;;;;;;4197098;28;20804;-78
2021/12/12 05:40:59;;;;;;;35.03;14.63;;;0.10;99.90;;;;;;4196350;28;20484;-78
2021/12/12 05:43:03;;;;;;;33.50;14.80;;;0.10;99.90;;;;;;4187752;28;20483;-80
2021/12/12 05:45:08;;;;;;;32.23;13.17;;;0.10;99.90;;;;;;4193849;28;20655;-79
2021/12/12 05:47:10;;;;;;;34.03;13.67;;;0.10;99.90;;;;;;4196352;28;20449;-79
2021/12/12 05:49:13;;;;;;;34.70;14.37;;;0.10;99.90;;;;;;4199049;28;20533;-79
2021/12/12 05:51:16;;;;;;;35.63;13.70;;;0.10;99.90;;;;;;4197401;28;20550;-79
2021/12/12 05:53:19;;;;;;;34.13;14.13;;;0.10;99.90;;;;;;4196866;28;20513;-78
2021/12/12 05:55:26;;;;;;;32.23;14.00;;;0.10;99.90;;;;;;4196685;28;20980;-76
2021/12/12 05:57:30;;;;;;;33.10;13.50;;;0.10;99.90;;;;;;4197018;28;20786;-79
2021/12/12 05:59:32;;;;;;;29.40;13.17;;;0.10;99.90;;;;;;4182961;28;20480;-78
2021/12/12 06:01:34;;;;;;;31.90;13.77;;;0.10;99.90;;;;;;4203362;28;20498;-78
2021/12/12 06:03:38;;;;;;;30.17;12.13;;;0.10;99.90;;;;;;4198694;28;20484;-77
2021/12/12 06:05:41;;;;;;;31.20;13.73;;;0.10;99.90;;;;;;4195297;28;20476;-79
2021/12/12 06:07:43;;;;;;;30.67;14.00;;;0.10;99.90;;;;;;4194495;28;20494;-79
2021/12/12 06:09:46;;;;;;;32.67;13.53;;;0.10;99.90;;;;;;4195347;28;20467;-78
2021/12/12 06:11:51;;;;;;;31.30;12.93;;;0.10;99.90;;;;;;4194814;28;20444;-78
2021/12/12 06:13:54;;;;;;;32.27;13.27;;;0.10;99.90;;;;;;4195210;28;20462;-78
2021/12/12 06:15:57;;;;;;;29.33;12.97;;;0.10;99.90;;;;;;4193682;28;21012;-78
2021/12/12 06:18:00;;;;;;;28.87;13.50;;;0.00;99.90;;;;;;4195246;28;20465;-78
2021/12/12 06:20:03;;;;;;;29.83;12.43;;;0.00;99.90;;;;;;4195159;28;20480;-79
2021/12/12 06:22:06;;;;;;;31.33;12.97;;;0.00;99.90;;;;;;4195266;28;20460;-78
2021/12/12 06:24:09;;;;;;;28.13;12.63;;;0.00;99.90;;;;;;4193897;28;20476;-78
2021/12/12 06:26:11;;;;;;;29.10;13.37;;;0.00;99.90;;;;;;4195353;28;21015;-79
2021/12/12 06:28:17;;;;;;;29.73;13.50;;;0.00;99.90;;;;;;4195350;28;20490;-79
2021/12/12 06:30:22;;;;;;;31.07;12.97;;;0.00;99.90;;;;;;4196415;28;20476;-79
2021/12/12 06:32:25;;;;;;;28.23;11.90;;;0.00;99.90;;;;;;4188379;28;20527;-78
2021/12/12 06:34:26;;;;;;;28.10;12.17;;;0.00;99.90;;;;;;4188036;28;20472;-79
2021/12/12 06:36:28;;;;;;;30.60;12.43;;;-0.10;99.90;;;;;;4194842;28;20597;-79
2021/12/12 06:38:30;;;;;;;27.97;12.77;;;-0.10;99.90;;;;;;4194611;28;20460;-80
2021/12/12 06:40:33;;;;;;;25.67;11.70;;;-0.10;99.90;;;;;;4191050;28;20487;-78
2021/12/12 06:42:35;;;;;;;27.43;12.27;;;-0.10;99.90;;;;;;4195715;28;20482;-79
2021/12/12 06:44:40;;;;;;;23.87;10.80;;;-0.10;99.90;;;;;;4194967;28;20475;-79
2021/12/12 06:46:43;;;;;;;27.30;11.73;;;-0.10;99.90;;;;;;4195416;28;20804;-78
2021/12/12 06:48:45;;;;;;;24.20;11.00;;;-0.10;99.90;;;;;;4193801;28;20464;-79
2021/12/12 06:50:50;;;;;;;24.03;11.40;;;-0.10;99.90;;;;;;4197025;28;20464;-79
2021/12/12 06:52:52;;;;;;;25.33;10.63;;;-0.10;99.90;;;;;;4195986;28;20848;-79
2021/12/12 06:54:54;;;;;;;28.23;12.07;;;-0.10;99.90;;;;;;4196107;28;20482;-79
2021/12/12 06:56:59;;;;;;;27.83;11.63;;;-0.10;99.90;;;;;;4196270;28;20529;-80
2021/12/12 06:59:02;;;;;;;34.07;12.47;;;-0.10;99.90;;;;;;4194887;28;20480;-80
2021/12/12 07:01:11;;;;;;;26.00;11.30;;;-0.10;99.90;;;;;;4194710;28;20480;-79
2021/12/12 07:03:14;;;;;;;26.67;11.10;;;-0.10;99.90;;;;;;4192445;28;20850;-79
2021/12/12 07:05:18;;;;;;;28.07;11.77;;;-0.10;99.90;;;;;;4203189;28;20492;-78
2021/12/12 07:07:20;;;;;;;25.87;11.27;;;-0.10;99.90;;;;;;4211208;28;20549;-79
2021/12/12 07:09:22;;;;;;;24.53;11.17;;;-0.10;99.90;;;;;;4196051;28;20477;-79
2021/12/12 07:11:27;;;;;;;28.33;11.83;;;-0.10;99.90;;;;;;4195111;28;20476;-79
2021/12/12 07:13:29;;;;;;;25.87;10.90;;;0.00;99.90;;;;;;4195492;28;20555;-78
2021/12/12 07:15:34;;;;;;;23.97;11.43;;;0.00;99.90;;;;;;4195638;28;20468;-78
2021/12/12 07:17:37;;;;;;;23.27;11.30;;;0.00;99.90;;;;;;4195623;28;20962;-78
2021/12/12 07:19:41;;;;;;;24.60;11.37;;;0.00;99.90;;;;;;4195103;28;20475;-78
2021/12/12 07:21:43;;;;;;;27.40;11.17;;;0.00;99.90;;;;;;4223875;22;20960;-79
2021/12/12 07:23:49;;;;;;;26.20;11.23;;;0.00;99.90;;;;;;4184227;28;20530;-79
2021/12/12 07:25:52;;;;;;;27.00;11.20;;;0.00;99.90;;;;;;4197756;28;21155;-79
2021/12/12 07:27:54;;;;;;;25.47;10.43;;;0.00;99.90;;;;;;4197335;28;20688;-79
2021/12/12 07:29:56;;;;;;;25.47;10.60;;;0.00;99.90;;;;;;4196364;28;20472;-80
2021/12/12 07:31:58;;;;;;;23.53;10.63;;;0.10;99.90;;;;;;4205527;28;20471;-80
2021/12/12 07:34:04;;;;;;;27.23;11.47;;;0.10;99.90;;;;;;4197733;28;20487;-79
2021/12/12 07:36:09;;;;;;;25.43;11.43;;;0.10;99.90;;;;;;4199172;28;20492;-78
2021/12/12 07:38:13;;;;;;;25.27;10.17;;;0.10;99.90;;;;;;4197056;28;20517;-79
2021/12/12 07:40:16;;;;;;;26.10;11.23;;;0.10;99.90;;;;;;4185863;28;20467;-78
2021/12/12 07:42:22;;;;;;;21.53;10.03;;;0.10;99.90;;;;;;4198161;28;20464;-79
2021/12/12 07:44:33;;;;;;;26.57;10.93;;;0.50;99.90;;;;;;4197650;28;20525;-79
2021/12/12 07:46:36;;;;;;;24.97;10.60;;;0.20;99.90;;;;;;4183239;28;20719;-80
2021/12/12 07:48:39;;;;;;;25.03;10.77;;;0.20;99.90;;;;;;4194131;28;21051;-79
2021/12/12 07:50:45;;;;;;;25.70;9.93;;;0.20;99.90;;;;;;4197560;28;20484;-78
2021/12/12 07:52:47;;;;;;;25.23;10.97;;;0.30;99.90;;;;;;4199015;28;20461;-78
2021/12/12 07:54:50;;;;;;;24.30;10.63;;;0.30;99.90;;;;;;4197377;28;20898;-78
2021/12/12 07:56:52;;;;;;;24.37;10.53;;;0.30;99.90;;;;;;4195920;28;21004;-78
2021/12/12 07:58:55;;;;;;;22.27;10.43;;;0.30;99.90;;;;;;4200135;28;20468;-78
2021/12/12 08:00:59;;;;;;;27.23;9.83;;;0.30;99.90;;;;;;4197743;28;20484;-78
2021/12/12 08:03:01;;;;;;;23.43;10.57;;;0.40;99.90;;;;;;4198571;28;20456;-79
2021/12/12 08:05:05;;;;;;;23.77;10.47;;;0.40;99.90;;;;;;4195342;28;20473;-80
2021/12/12 08:07:12;;;;;;;25.63;11.20;;;0.40;99.90;;;;;;4197107;28;20514;-79
2021/12/12 08:09:14;;;;;;;25.33;10.53;;;0.40;99.90;;;;;;4197611;28;20445;-80
2021/12/12 08:11:19;;;;;;;24.93;9.87;;;0.50;99.90;;;;;;4194443;28;20473;-79
2021/12/12 08:13:21;;;;;;;25.70;10.37;;;0.50;99.90;;;;;;4196286;28;20494;-79
2021/12/12 08:15:23;;;;;;;20.90;9.23;;;0.50;99.90;;;;;;4201362;28;20534;-77
2021/12/12 08:17:26;;;;;;;21.13;9.47;;;0.60;99.90;;;;;;4188948;28;20487;-78
2021/12/12 08:19:29;;;;;;;26.00;9.70;;;0.60;99.90;;;;;;4191022;28;20510;-78
2021/12/12 08:21:33;;;;;;;20.43;9.20;;;0.60;99.90;;;;;;4188176;28;20588;-77
2021/12/12 08:23:38;;;;;;;18.40;8.63;;;0.60;99.90;;;;;;4189423;28;20907;-79
2021/12/12 08:25:40;;;;;;;20.07;9.27;;;0.70;99.90;;;;;;4194732;28;20460;-78
2021/12/12 08:27:42;;;;;;;22.30;9.83;;;0.70;99.90;;;;;;4190293;28;20477;-77
2021/12/12 08:29:44;;;;;;;28.07;11.23;;;0.70;99.90;;;;;;4189415;28;20456;-79
2021/12/12 08:31:47;;;;;;;20.33;9.10;;;0.70;99.90;;;;;;4194451;28;20467;-77
2021/12/12 08:33:49;;;;;;;21.43;9.57;;;0.80;99.90;;;;;;4198238;28;20529;-80
2021/12/12 08:35:51;;;;;;;26.47;10.07;;;0.90;99.90;;;;;;4201053;28;20468;-77
2021/12/12 08:37:54;;;;;;;20.20;8.80;;;0.90;99.90;;;;;;4193592;28;20949;-79
2021/12/12 08:39:57;;;;;;;23.43;10.60;;;0.90;99.90;;;;;;4191584;28;20941;-77
2021/12/12 08:42:00;;;;;;;21.20;9.43;;;0.90;99.90;;;;;;4195534;28;20549;-77
2021/12/12 08:44:03;;;;;;;21.73;9.13;;;1.00;99.90;;;;;;4189776;28;20508;-78
2021/12/12 08:46:07;;;;;;;22.67;9.87;;;1.00;99.90;;;;;;4188384;28;20475;-78
2021/12/12 08:48:09;;;;;;;22.13;9.23;;;1.10;99.90;;;;;;4191569;28;20453;-77
2021/12/12 08:50:14;;;;;;;22.20;9.30;;;1.10;99.90;;;;;;4191130;28;20454;-78
2021/12/12 08:52:19;;;;;;;20.53;9.23;;;1.10;99.90;;;;;;4204736;28;20453;-80
2021/12/12 08:54:26;;;;;;;18.77;9.47;;;1.20;99.90;;;;;;4199462;28;20939;-80
2021/12/12 08:56:42;;;;;;;19.27;9.23;;;1.20;99.90;;;;;;4197496;28;20492;-78
2021/12/12 08:58:44;;;;;;;21.47;9.53;;;1.20;99.90;;;;;;4199183;28;20461;-80
2021/12/12 09:00:51;;;;;;;22.30;9.60;;;1.30;99.90;;;;;;4202841;28;21828;-78
2021/12/12 09:02:54;;;;;;;21.47;10.10;;;1.30;99.90;;;;;;4198160;28;20463;-80
2021/12/12 09:05:00;;;;;;;21.13;9.73;;;1.30;99.90;;;;;;4201505;28;20481;-80
2021/12/12 09:07:09;;;;;;;23.37;9.53;;;1.40;99.90;;;;;;4200641;28;20466;-76
2021/12/12 09:09:17;;;;;;;24.00;9.20;;;1.40;99.90;;;;;;4205741;28;20511;-82
2021/12/12 09:11:26;;;;;;;21.23;9.43;;;1.40;99.90;;;;;;4201340;28;20546;-76
2021/12/12 09:13:33;;;;;;;19.57;9.17;;;1.40;99.90;;;;;;4199869;28;20472;-81
2021/12/12 09:15:40;;;;;;;18.83;8.90;;;1.50;99.90;;;;;;4201409;28;20884;-76
2021/12/12 09:17:45;;;;;;;17.17;8.77;;;1.50;99.90;;;;;;4200514;28;21000;-77
2021/12/12 09:19:52;;;;;;;19.83;8.13;;;1.50;99.90;;;;;;4197473;28;20461;-77
2021/12/12 09:22:01;;;;;;;19.60;9.23;;;1.50;99.90;;;;;;4192469;28;20547;-77
2021/12/12 09:24:11;;;;;;;20.10;9.17;;;1.60;99.90;;;;;;4198186;28;20966;-78
2021/12/12 09:26:18;;;;;;;20.23;8.90;;;1.60;99.90;;;;;;4199961;28;20493;-77
2021/12/12 09:28:27;;;;;;;20.03;8.63;;;1.60;99.90;;;;;;4185891;28;20523;-78
2021/12/12 09:30:30;;;;;;;17.40;7.97;;;1.70;99.90;;;;;;4181614;28;20537;-77
2021/12/12 09:32:38;;;;;;;17.07;8.20;;;1.70;99.90;;;;;;4181948;28;20458;-78
2021/12/12 09:34:49;;;;;;;19.43;9.00;;;1.70;99.90;;;;;;4198224;28;20527;-78
2021/12/12 09:36:58;;;;;;;19.07;9.17;;;1.80;99.90;;;;;;4202488;28;20632;-79
2021/12/12 09:39:06;;;;;;;20.87;8.80;;;1.80;99.90;;;;;;4206252;28;20457;-77
2021/12/12 09:41:27;;;;;;;20.57;9.23;;;1.80;99.90;;;;;;4192648;28;20487;-77
2021/12/12 09:43:43;;;;;;;21.77;9.70;;;1.90;99.90;;;;;;4197500;28;20470;-78
2021/12/12 09:46:28;;;;;;;21.40;9.67;;;1.90;99.90;;;;;;4198158;28;20501;-79
2021/12/12 09:51:26;;;;;;;21.87;8.43;;;2.00;99.90;;;;;;4195189;28;20464;-78
2021/12/12 09:53:47;;;;;;;22.33;9.20;;;2.00;99.90;;;;;;4193984;28;20518;-80
2021/12/12 09:55:54;;;;;;;20.27;9.50;;;2.00;99.90;;;;;;4196058;28;20519;-79
2021/12/12 09:58:01;;;;;;;20.17;9.47;;;2.10;99.90;;;;;;4200311;28;20495;-76
2021/12/12 10:00:11;;;;;;;24.07;10.00;;;2.10;99.90;;;;;;4214099;28;21023;-77
2021/12/12 10:02:22;;;;;;;16.83;8.47;;;2.10;99.90;;;;;;4197191;28;20503;-76
2021/12/12 10:04:28;;;;;;;19.97;8.40;;;2.10;99.90;;;;;;4192029;28;20506;-77
2021/12/12 10:06:38;;;;;;;17.20;8.20;;;2.20;99.90;;;;;;4190426;28;20492;-80
2021/12/12 10:08:53;;;;;;;17.80;8.80;;;2.20;99.90;;;;;;4196741;28;20467;-77
2021/12/12 10:11:01;;;;;;;21.50;8.93;;;2.20;99.90;;;;;;4192028;28;20908;-77
2021/12/12 10:13:13;;;;;;;18.03;8.77;;;2.20;99.90;;;;;;4195664;28;20474;-76
2021/12/12 10:15:23;;;;;;;20.40;9.27;;;2.20;99.90;;;;;;4195341;28;20454;-79
2021/12/12 10:17:32;;;;;;;18.07;8.33;;;2.30;99.90;;;;;;4195578;28;20506;-79
2021/12/12 10:19:44;;;;;;;17.37;8.37;;;2.30;99.90;;;;;;4194588;28;20520;-77
2021/12/12 10:21:57;;;;;;;18.27;8.07;;;2.30;99.90;;;;;;4195885;28;20487;-78
2021/12/12 10:24:11;;;;;;;15.57;7.83;;;2.40;99.90;;;;;;4192306;28;20450;-78
2021/12/12 10:26:17;;;;;;;17.40;7.83;;;2.40;99.90;;;;;;4192411;28;20493;-80
2021/12/12 10:28:22;;;;;;;18.63;8.93;;;2.40;99.90;;;;;;4194552;28;20459;-76
2021/12/12 10:30:27;;;;;;;18.77;8.03;;;2.40;99.90;;;;;;4194316;28;20529;-77
2021/12/12 10:32:33;;;;;;;15.93;7.60;;;2.40;99.90;;;;;;4193742;28;20479;-77
2021/12/12 10:34:41;;;;;;;20.80;8.63;;;2.50;99.90;;;;;;4199136;28;20454;-82
2021/12/12 10:36:51;;;;;;;15.10;7.87;;;2.50;99.90;;;;;;4197955;28;20463;-79
2021/12/12 10:38:57;;;;;;;18.60;8.03;;;2.50;99.90;;;;;;4197547;28;20509;-83
2021/12/12 10:41:06;;;;;;;15.30;7.37;;;2.50;99.90;;;;;;4192643;28;20525;-80
2021/12/12 10:43:12;;;;;;;13.73;6.70;;;2.50;99.90;;;;;;4204199;28;20878;-83
2021/12/12 10:45:17;;;;;;;15.50;7.30;;;2.50;99.90;;;;;;4207332;28;20523;-78
2021/12/12 10:47:29;;;;;;;15.43;7.27;;;2.60;99.90;;;;;;4194956;28;20485;-79
2021/12/12 10:49:38;;;;;;;15.20;6.80;;;2.60;99.90;;;;;;4192892;28;20478;-78
2021/12/12 10:51:46;;;;;;;16.27;7.30;;;2.60;99.90;;;;;;4192599;28;20543;-78
2021/12/12 10:53:57;;;;;;;15.47;7.33;;;2.60;99.90;;;;;;4196839;28;20606;-81
2021/12/12 10:56:05;;;;;;;15.37;6.97;;;2.60;99.90;;;;;;4190633;28;20524;-81
2021/12/12 10:58:15;;;;;;;14.70;6.87;;;2.60;99.90;;;;;;4193401;28;20491;-78
2021/12/12 11:00:22;;;;;;;13.77;6.80;;;2.70;99.90;;;;;;4194420;28;20923;-80